Glen Morgan, West Virginia
Current Conditions -  °F | °C
As of 3:33 AM on Thursday 27 Nov 2014 (Local Time) from KBKW Reporting Station
Light Snow Light Snow  
Wind Chill: 33°   Ceiling: 3100
Heat Index: 33°   Visibility: 1.5mi
Dew Point: 31°   Wind: 0mph
Humidity: 92%   Direction: NA
Pressure: 29.93"   Gusts: NA
Location:  37.76°N, 81.16°W
Report Text: KBKW 270833Z AUTO 00000KT 1 1/2SM -SN BR FEW002 BKN031 OVC040 01/M01 A2993 RMK AO2 VIS 3/4 RWY19 SNB09 P0001 T00061006
Loading
Personal Weather Stations






























Interactive Weather Map New forecast layout! Learn more

10-Day Weather Forecast

Advertisements
Track Severe Weather on mobile